Terminal Aerodrome Forecast
Issued by NWS Cleveland, OH

Home | Current Version | Previous Version | Graphics & Text | Print | Product List | Glossary Off
Versions: 1 2 3 4 5 6 7 8 9 10 11 12 13 14 15 16 17 18 19 20 21 22 23 24 25 26 27 28 29 30 31

000
FTUS41 KCLE 300257 AAB
TAFCLE
TAF AMD
KCLE 300257Z 3003/0106 09010KT P6SM VCSH SCT020 OVC080
      TEMPO 3003/3005 08012G20KT 3SM -SHRA BKN015
     FM300500 09012G20KT P6SM OVC008
     FM301500 08014G22KT P6SM BKN012 BKN025
     FM302200 09012KT P6SM -SHRA BKN030
     FM010400 13008KT 5SM BR BKN015=

USA.gov is the U.S. government's official web portal to all federal, state and local government web resources and services.